createdAt,value
2019-01-18T00:02:30.689Z,58.20
2019-01-18T00:05:14.099Z,58.40
2019-01-18T00:07:45.444Z,58.50
2019-01-18T00:10:16.955Z,58.70
2019-01-18T00:12:48.235Z,58.70
2019-01-18T00:15:31.578Z,58.80
2019-01-18T00:18:02.965Z,58.80
2019-01-18T00:20:34.454Z,58.80
2019-01-18T00:23:05.805Z,58.90
2019-01-18T00:25:37.177Z,58.80
2019-01-18T00:28:08.533Z,58.70
2019-01-18T00:30:40.152Z,58.70
2019-01-18T00:33:11.593Z,58.70
2019-01-18T00:35:42.951Z,58.60
2019-01-18T00:38:14.300Z,58.60
2019-01-18T00:40:45.621Z,58.50
2019-01-18T00:43:17.939Z,58.50
2019-01-18T00:45:49.473Z,58.60
2019-01-18T00:48:20.866Z,58.50
2019-01-18T00:50:52.260Z,58.60
2019-01-18T00:53:23.663Z,58.60
2019-01-18T00:55:55.041Z,58.60
2019-01-18T00:58:26.417Z,58.60
2019-01-18T01:00:57.776Z,58.50
2019-01-18T01:03:29.124Z,58.60
2019-01-18T01:06:00.497Z,58.40
2019-01-18T01:08:43.946Z,59.20
2019-01-18T01:11:16.266Z,58.60
2019-01-18T01:13:47.629Z,58.70
2019-01-18T01:16:19.052Z,58.60
2019-01-18T01:18:50.388Z,58.50
2019-01-18T01:21:21.830Z,58.50
2019-01-18T01:24:05.126Z,58.60
2019-01-18T01:26:36.544Z,58.70
2019-01-18T01:29:07.895Z,58.60
2019-01-18T01:31:39.265Z,58.70
2019-01-18T01:34:10.700Z,58.70
2019-01-18T01:36:42.089Z,58.80
2019-01-18T01:39:13.449Z,58.90
2019-01-18T01:41:44.849Z,59.00
2019-01-18T01:44:16.208Z,59.00
2019-01-18T01:46:47.564Z,59.10
2019-01-18T01:49:18.957Z,59.30
2019-01-18T01:51:50.408Z,59.30
2019-01-18T01:54:21.793Z,59.50
2019-01-18T01:56:53.208Z,59.60
2019-01-18T01:59:24.568Z,59.70
2019-01-18T02:01:55.979Z,59.70
2019-01-18T02:04:39.006Z,59.90
2019-01-18T02:07:10.361Z,60.00
2019-01-18T02:09:41.729Z,60.10
2019-01-18T02:12:13.933Z,60.20
2019-01-18T02:14:45.276Z,60.30
2019-01-18T02:17:16.640Z,60.40
2019-01-18T02:19:47.936Z,60.50
2019-01-18T02:22:19.229Z,60.50
2019-01-18T02:24:50.583Z,60.50
2019-01-18T02:27:22.024Z,60.40
2019-01-18T02:29:56.787Z,60.40
2019-01-18T02:32:26.866Z,60.40
2019-01-18T02:34:58.216Z,60.40
2019-01-18T02:37:29.624Z,60.30
2019-01-18T02:40:01.081Z,60.40
2019-01-18T02:42:32.533Z,60.40
2019-01-18T02:45:05.257Z,60.10
2019-01-18T02:47:36.629Z,60.00
2019-01-18T02:50:08.669Z,59.90
2019-01-18T02:52:40.057Z,60.00
2019-01-18T02:55:11.528Z,59.90
2019-01-18T02:57:42.967Z,59.70
2019-01-18T03:00:19.736Z,59.70
2019-01-18T03:02:52.142Z,59.70
2019-01-18T03:05:26.053Z,59.40
2019-01-18T03:07:57.536Z,59.50
2019-01-18T03:10:30.757Z,59.40
2019-01-18T03:13:03.201Z,59.40
2019-01-18T03:15:34.569Z,59.30
2019-01-18T03:18:17.997Z,59.20
2019-01-18T03:20:49.370Z,59.30
2019-01-18T03:23:20.757Z,59.20
2019-01-18T03:25:52.037Z,59.30
2019-01-18T03:28:23.465Z,59.30
2019-01-18T03:30:54.694Z,59.10
2019-01-18T03:33:26.069Z,59.10
2019-01-18T03:35:57.460Z,59.10
2019-01-18T03:38:28.834Z,59.00
2019-01-18T03:41:00.184Z,59.00
2019-01-18T03:43:31.549Z,59.10
2019-01-18T03:46:02.892Z,59.10
2019-01-18T03:48:34.269Z,59.20
2019-01-18T03:51:05.643Z,59.20
2019-01-18T03:53:37.066Z,59.20
2019-01-18T03:56:08.377Z,59.10
2019-01-18T03:58:39.776Z,59.10
2019-01-18T04:01:11.141Z,59.20
2019-01-18T04:03:42.535Z,59.20
2019-01-18T04:06:13.885Z,59.20
2019-01-18T04:08:45.098Z,59.00
2019-01-18T04:11:16.476Z,58.70
2019-01-18T04:13:48.854Z,58.80
2019-01-18T04:16:22.145Z,58.70
2019-01-18T04:18:53.836Z,58.80
2019-01-18T04:21:25.143Z,58.80
2019-01-18T04:23:56.594Z,58.90
2019-01-18T04:26:28.508Z,58.60
2019-01-18T04:28:59.901Z,58.70
2019-01-18T04:31:31.304Z,58.80
2019-01-18T04:34:02.691Z,58.70
2019-01-18T04:36:34.071Z,58.60
2019-01-18T04:39:17.695Z,58.50
2019-01-18T04:41:49.029Z,58.50
2019-01-18T04:44:20.432Z,58.70
2019-01-18T04:46:51.760Z,58.60
2019-01-18T04:49:23.092Z,58.40
2019-01-18T04:51:54.474Z,58.50
2019-01-18T04:54:26.905Z,58.70
2019-01-18T04:56:58.350Z,58.80
2019-01-18T04:59:29.710Z,58.70
2019-01-18T05:02:01.078Z,58.40
2019-01-18T05:04:32.705Z,58.20
2019-01-18T05:07:04.182Z,58.10
2019-01-18T05:09:47.480Z,58.20
2019-01-18T05:12:30.706Z,58.20
2019-01-18T05:15:03.002Z,58.20
2019-01-18T05:17:34.430Z,58.20
2019-01-18T05:20:06.558Z,58.00
2019-01-18T05:22:38.876Z,57.90
2019-01-18T05:25:10.977Z,57.90
2019-01-18T05:27:43.208Z,58.00
2019-01-18T05:30:19.925Z,57.90
2019-01-18T05:32:51.368Z,58.10
2019-01-18T05:35:22.773Z,58.00
2019-01-18T05:38:06.205Z,58.30
2019-01-18T05:40:37.598Z,58.50
2019-01-18T05:46:00.516Z,59.00
2019-01-18T05:48:42.640Z,59.30
2019-01-18T05:51:14.098Z,59.40
2019-01-18T05:53:45.701Z,59.50
2019-01-18T05:56:17.245Z,59.50
2019-01-18T05:58:48.601Z,59.40
2019-01-18T06:01:20.053Z,59.40
2019-01-18T06:03:51.544Z,59.50
2019-01-18T06:06:34.780Z,59.60
2019-01-18T06:09:18.281Z,59.50
2019-01-18T06:11:49.755Z,59.50
2019-01-18T06:14:21.303Z,59.30
2019-01-18T06:16:52.684Z,59.10
2019-01-18T06:19:24.116Z,59.10
2019-01-18T06:21:55.524Z,59.20
2019-01-18T06:24:26.906Z,59.10
2019-01-18T06:26:58.316Z,59.10
2019-01-18T06:29:29.668Z,59.10
2019-01-18T06:32:00.925Z,59.10
2019-01-18T06:34:32.288Z,59.00
2019-01-18T06:37:03.725Z,58.80
2019-01-18T06:39:35.100Z,58.90
2019-01-18T06:42:06.557Z,59.00
2019-01-18T06:44:37.958Z,59.00
2019-01-18T06:47:09.337Z,59.10
2019-01-18T06:49:40.757Z,59.10
2019-01-18T06:52:12.216Z,59.30
2019-01-18T06:54:43.601Z,59.30
2019-01-18T06:57:15.048Z,59.00
2019-01-18T06:59:46.438Z,59.00
2019-01-18T07:02:17.819Z,58.80
2019-01-18T07:04:49.181Z,58.70
2019-01-18T07:07:20.541Z,58.70
2019-01-18T07:09:51.923Z,58.60
2019-01-18T07:12:23.434Z,58.80
2019-01-18T07:14:54.797Z,58.80
2019-01-18T07:17:27.217Z,59.00
2019-01-18T07:19:58.517Z,58.90
2019-01-18T07:22:29.901Z,58.80
2019-01-18T07:25:01.337Z,58.60
2019-01-18T07:27:32.721Z,58.70
2019-01-18T07:30:05.804Z,58.70
2019-01-18T07:32:37.208Z,58.60
2019-01-18T07:35:08.663Z,58.30
2019-01-18T07:37:40.108Z,58.40
2019-01-18T07:40:11.624Z,58.40
2019-01-18T07:42:43.016Z,58.40
2019-01-18T07:45:17.156Z,58.40
2019-01-18T07:47:48.564Z,58.50
2019-01-18T07:50:20.362Z,58.10
2019-01-18T07:52:51.896Z,58.20
2019-01-18T07:55:23.366Z,58.20
2019-01-18T07:57:54.833Z,58.20
2019-01-18T08:00:30.541Z,58.10
2019-01-18T08:03:14.270Z,58.00
2019-01-18T08:05:57.159Z,57.80
2019-01-18T08:08:28.549Z,57.70
2019-01-18T08:10:59.871Z,57.80
2019-01-18T08:13:31.247Z,57.80
2019-01-18T08:16:02.625Z,57.70
2019-01-18T08:18:34.835Z,57.60
2019-01-18T08:21:06.271Z,57.50
2019-01-18T08:23:37.648Z,57.40
2019-01-18T08:26:08.992Z,57.40
2019-01-18T08:28:40.444Z,57.40
2019-01-18T08:31:11.806Z,57.30
2019-01-18T08:33:43.194Z,57.30
2019-01-18T08:36:14.557Z,57.30
2019-01-18T08:38:45.945Z,57.30
2019-01-18T08:41:17.318Z,57.40
2019-01-18T08:43:48.626Z,57.30
2019-01-18T08:46:20.337Z,57.40
2019-01-18T08:48:51.780Z,57.30
2019-01-18T08:51:23.133Z,57.40
2019-01-18T08:53:54.448Z,57.60
2019-01-18T08:56:25.853Z,57.40
2019-01-18T08:58:57.256Z,57.30
2019-01-18T09:01:28.526Z,57.30
2019-01-18T09:03:59.936Z,57.30
2019-01-18T09:06:31.312Z,57.50
2019-01-18T09:09:02.756Z,57.50
2019-01-18T09:11:34.120Z,57.40
2019-01-18T09:14:05.511Z,57.30
2019-01-18T09:16:36.946Z,57.30
2019-01-18T09:19:08.356Z,57.10
2019-01-18T09:21:40.605Z,57.10
2019-01-18T09:24:11.982Z,56.90
2019-01-18T09:26:43.356Z,57.00
2019-01-18T09:29:14.664Z,57.10
2019-01-18T09:31:46.074Z,57.20
2019-01-18T09:34:17.444Z,57.20
2019-01-18T09:37:01.019Z,57.30
2019-01-18T09:39:32.376Z,56.90
2019-01-18T09:42:03.777Z,56.70
2019-01-18T09:44:47.108Z,56.40
2019-01-18T09:47:18.517Z,56.10
2019-01-18T09:49:49.929Z,56.20
2019-01-18T09:52:33.489Z,56.00
2019-01-18T09:55:05.197Z,56.00
2019-01-18T09:57:55.673Z,55.60
2019-01-18T10:00:29.269Z,55.60
2019-01-18T10:03:19.721Z,55.60
2019-01-18T10:05:51.149Z,55.20
2019-01-18T10:08:22.533Z,54.90
2019-01-18T10:10:53.914Z,54.70
2019-01-18T10:13:25.296Z,54.30
2019-01-18T10:15:56.657Z,54.40
2019-01-18T10:18:28.037Z,54.40
2019-01-18T10:21:11.278Z,55.20
2019-01-18T10:23:42.751Z,55.10
2019-01-18T10:26:26.422Z,56.40
2019-01-18T10:28:57.692Z,55.70
2019-01-18T10:31:29.165Z,55.50
2019-01-18T10:34:00.549Z,54.60
2019-01-18T10:36:32.144Z,55.00
2019-01-18T10:39:06.660Z,52.80
2019-01-18T10:41:38.176Z,52.70
2019-01-18T10:44:09.667Z,51.40
2019-01-18T10:46:41.183Z,50.10
2019-01-18T10:49:12.542Z,48.90
2019-01-18T10:51:55.766Z,48.50
2019-01-18T10:54:27.221Z,47.60
2019-01-18T10:56:58.577Z,48.20
2019-01-18T10:59:29.970Z,47.20
2019-01-18T11:02:07.157Z,46.70
2019-01-18T11:04:34.448Z,47.90
2019-01-18T11:07:05.992Z,45.70
2019-01-18T11:09:37.491Z,44.90
2019-01-18T11:12:09.000Z,44.70
2019-01-18T11:14:40.617Z,43.70
2019-01-18T11:17:12.069Z,43.50
2019-01-18T11:19:43.692Z,43.30
2019-01-18T11:22:15.085Z,43.10
2019-01-18T11:24:47.266Z,43.70
2019-01-18T11:27:18.689Z,42.90
2019-01-18T11:29:50.081Z,40.60
2019-01-18T11:32:33.457Z,39.20
2019-01-18T11:35:05.171Z,37.90
2019-01-18T11:37:55.772Z,36.30
2019-01-18T11:40:27.144Z,36.60
2019-01-18T11:42:58.557Z,37.00
2019-01-18T11:45:29.813Z,37.20
2019-01-18T11:48:01.245Z,37.70
2019-01-18T11:50:32.787Z,38.20
2019-01-18T11:53:04.557Z,38.80
2019-01-18T11:55:35.953Z,39.50
2019-01-18T11:58:19.497Z,38.50
2019-01-18T12:00:50.900Z,39.10
2019-01-18T12:03:22.348Z,39.70
2019-01-18T12:05:53.696Z,39.50
2019-01-18T12:08:26.073Z,39.80
2019-01-18T12:10:57.532Z,40.00
2019-01-18T12:13:29.910Z,39.90
2019-01-18T12:16:01.260Z,40.30
2019-01-18T12:18:33.693Z,40.00
2019-01-18T12:21:05.137Z,40.70
2019-01-18T12:23:36.533Z,40.70
2019-01-18T12:26:10.020Z,39.80
2019-01-18T12:28:41.313Z,39.80
2019-01-18T12:31:12.714Z,40.50
2019-01-18T12:33:44.117Z,39.70
2019-01-18T12:36:28.475Z,39.30
2019-01-18T12:39:00.780Z,39.10
2019-01-18T12:41:32.333Z,37.80
2019-01-18T12:44:03.890Z,37.60
2019-01-18T12:46:35.931Z,37.30
2019-01-18T12:49:07.405Z,37.60
2019-01-18T12:51:38.817Z,37.90
2019-01-18T12:54:10.220Z,37.90
2019-01-18T12:56:53.468Z,36.20
2019-01-18T12:59:24.932Z,36.90
2019-01-18T13:01:56.320Z,36.70
2019-01-18T13:04:27.768Z,36.50
2019-01-18T13:06:59.156Z,35.20
2019-01-18T13:09:30.598Z,34.50
2019-01-18T13:12:21.080Z,34.60
2019-01-18T13:14:52.606Z,34.80
2019-01-18T13:17:23.984Z,35.00
2019-01-18T13:19:55.557Z,34.00
2019-01-18T13:22:27.129Z,33.30
2019-01-18T13:24:58.641Z,33.70
2019-01-18T13:27:30.164Z,33.50
2019-01-18T13:30:13.936Z,33.40
2019-01-18T13:32:57.437Z,32.50
2019-01-18T13:35:28.958Z,33.30
2019-01-18T13:38:00.711Z,33.70
2019-01-18T13:40:32.589Z,34.10
2019-01-18T13:43:04.093Z,34.80
2019-01-18T13:45:35.480Z,34.70
2019-01-18T13:48:18.945Z,35.20
2019-01-18T13:50:50.492Z,35.30
2019-01-18T13:53:21.883Z,35.80
2019-01-18T13:55:53.379Z,36.10
2019-01-18T13:58:36.674Z,36.40
2019-01-18T14:01:08.099Z,36.40
2019-01-18T14:03:51.693Z,36.60
2019-01-18T14:06:34.730Z,37.00
2019-01-18T14:09:09.027Z,37.40
2019-01-18T14:11:40.430Z,37.80
2019-01-18T14:14:11.978Z,37.90
2019-01-18T14:16:43.380Z,38.10
2019-01-18T14:19:14.749Z,38.50
2019-01-18T14:21:46.237Z,38.90
2019-01-18T14:24:17.572Z,39.00
2019-01-18T14:26:48.856Z,39.20
2019-01-18T14:29:32.141Z,39.40
2019-01-18T14:32:03.622Z,39.60
2019-01-18T14:34:35.002Z,39.60
2019-01-18T14:37:06.407Z,39.70
2019-01-18T14:39:37.778Z,39.60
2019-01-18T14:42:09.198Z,39.70
2019-01-18T14:44:40.540Z,39.50
2019-01-18T14:47:11.909Z,39.00
2019-01-18T14:49:43.264Z,39.10
2019-01-18T14:52:14.640Z,39.50
2019-01-18T14:54:46.014Z,39.80
2019-01-18T14:57:17.492Z,39.70
2019-01-18T14:59:48.928Z,39.80
2019-01-18T15:02:20.328Z,39.70
2019-01-18T15:05:03.637Z,39.90
2019-01-18T15:07:35.069Z,40.00
2019-01-18T15:10:08.709Z,40.10
2019-01-18T15:12:40.196Z,40.10
2019-01-18T15:15:13.570Z,40.20
2019-01-18T15:17:45.436Z,40.30
2019-01-18T15:20:28.256Z,40.40
2019-01-18T15:22:59.866Z,40.40
2019-01-18T15:25:33.869Z,40.50
2019-01-18T15:28:05.338Z,40.60
2019-01-18T15:30:37.009Z,40.80
2019-01-18T15:33:09.339Z,41.00
2019-01-18T15:35:41.085Z,41.30
2019-01-18T15:38:12.788Z,41.70
2019-01-18T15:40:47.630Z,41.50
2019-01-18T15:43:21.207Z,41.60
2019-01-18T15:45:52.591Z,41.70
2019-01-18T15:48:24.173Z,41.70
2019-01-18T15:50:55.512Z,41.90
2019-01-18T15:53:26.857Z,41.80
2019-01-18T15:55:58.194Z,41.90
2019-01-18T15:58:29.569Z,42.70
2019-01-18T16:01:01.853Z,42.30
2019-01-18T16:03:33.273Z,42.30
2019-01-18T16:06:04.654Z,42.60
2019-01-18T16:08:36.105Z,42.60
2019-01-18T16:11:07.521Z,42.70
2019-01-18T16:13:39.200Z,42.70
2019-01-18T16:16:18.745Z,42.50
2019-01-18T16:18:50.161Z,42.80
2019-01-18T16:21:21.500Z,43.10
2019-01-18T16:23:52.894Z,43.30
2019-01-18T16:26:24.312Z,43.40
2019-01-18T16:28:55.732Z,43.40
2019-01-18T16:31:27.884Z,43.50
2019-01-18T16:33:59.223Z,43.70
2019-01-18T16:36:30.576Z,43.70
2019-01-18T16:39:01.995Z,43.80
2019-01-18T16:41:35.189Z,44.00
2019-01-18T16:44:06.626Z,44.00
2019-01-18T16:46:38.013Z,44.20
2019-01-18T16:49:09.409Z,44.40
2019-01-18T16:51:40.836Z,44.60
2019-01-18T16:54:12.264Z,44.70
2019-01-18T16:56:55.408Z,44.90
2019-01-18T16:59:26.823Z,45.00
2019-01-18T17:01:59.081Z,45.10
2019-01-18T17:04:30.641Z,45.20
2019-01-18T17:07:02.005Z,45.40
2019-01-18T17:09:33.439Z,45.60
2019-01-18T17:12:04.781Z,45.60
2019-01-18T17:14:38.565Z,45.70
2019-01-18T17:17:09.987Z,45.70
2019-01-18T17:19:41.386Z,45.80
2019-01-18T17:22:24.681Z,45.90
2019-01-18T17:24:56.084Z,45.90
2019-01-18T17:27:27.520Z,46.00
2019-01-18T17:29:58.950Z,46.10
2019-01-18T17:32:30.308Z,46.20
2019-01-18T17:35:13.756Z,46.40
2019-01-18T17:37:56.976Z,46.40
2019-01-18T17:40:47.987Z,46.30
2019-01-18T17:44:00.655Z,46.50
2019-01-18T17:47:12.121Z,46.60
2019-01-18T17:50:29.424Z,46.70
2019-01-18T17:53:16.231Z,46.80
2019-01-18T17:56:13.593Z,46.80
2019-01-18T17:59:20.666Z,47.20
2019-01-18T18:05:50.204Z,47.40
2019-01-18T18:08:46.753Z,47.40
2019-01-18T18:11:30.282Z,47.50
2019-01-18T18:14:19.498Z,47.60
2019-01-18T18:17:03.208Z,47.60
2019-01-18T18:19:59.369Z,47.80
2019-01-18T18:22:42.430Z,48.00
2019-01-18T18:25:56.292Z,48.00
2019-01-18T18:29:10.496Z,48.20
2019-01-18T18:31:53.705Z,48.30
2019-01-18T18:35:09.171Z,48.30
2019-01-18T18:38:09.447Z,48.50
2019-01-18T18:41:05.105Z,48.50
2019-01-18T18:44:35.794Z,48.60
2019-01-18T18:48:03.349Z,48.60
2019-01-18T18:51:11.649Z,48.70
2019-01-18T18:54:12.357Z,48.80
2019-01-18T18:57:12.578Z,49.00
2019-01-18T19:00:22.642Z,49.20
2019-01-18T19:03:05.753Z,49.20
2019-01-18T19:06:17.195Z,49.30
2019-01-18T19:09:19.775Z,49.50
2019-01-18T19:12:03.386Z,49.50
2019-01-18T19:14:57.782Z,49.50
2019-01-18T19:17:49.866Z,49.70
2019-01-18T19:21:02.791Z,49.70
2019-01-18T19:24:05.470Z,49.80
2019-01-18T19:27:00.312Z,50.10
2019-01-18T19:30:02.373Z,50.10
2019-01-18T19:32:57.271Z,50.10
2019-01-18T19:36:03.855Z,50.10
2019-01-18T19:39:20.335Z,50.10
2019-01-18T19:42:03.895Z,50.10
2019-01-18T19:44:47.109Z,50.10
2019-01-18T19:47:38.853Z,50.30
2019-01-18T19:51:15.767Z,50.30
2019-01-18T19:54:28.014Z,50.30
2019-01-18T19:57:37.141Z,50.30
2019-01-18T20:00:20.242Z,50.40
2019-01-18T20:03:29.937Z,50.70
2019-01-18T20:06:20.714Z,50.70
2019-01-18T20:09:20.853Z,50.60
2019-01-18T20:12:32.439Z,50.80
2019-01-18T20:15:57.075Z,50.70
2019-01-18T20:18:44.050Z,50.50
2019-01-18T20:22:11.724Z,50.60
2019-01-18T20:25:11.750Z,50.80
2019-01-18T20:28:07.408Z,50.70
2019-01-18T20:31:04.336Z,50.90
2019-01-18T20:34:29.101Z,51.00
2019-01-18T20:37:31.218Z,51.00
2019-01-18T20:40:22.809Z,51.00
2019-01-18T20:43:18.529Z,51.10
2019-01-18T20:46:28.161Z,51.00
2019-01-18T20:49:22.050Z,50.90
2019-01-18T20:52:02.012Z,50.90
2019-01-18T20:55:23.325Z,51.00
2019-01-18T20:58:30.093Z,50.90
2019-01-18T21:01:50.969Z,50.70
2019-01-18T21:05:01.701Z,50.80
2019-01-18T21:07:59.420Z,50.80
2019-01-18T21:11:21.797Z,50.80
2019-01-18T21:14:19.097Z,50.90
2019-01-18T21:17:31.501Z,50.80
2019-01-18T21:20:18.944Z,50.90
2019-01-18T21:23:28.626Z,50.80
2019-01-18T21:26:32.537Z,50.80
2019-01-18T21:29:15.353Z,50.80
2019-01-18T21:35:25.054Z,50.90
2019-01-18T21:38:51.249Z,51.10
2019-01-18T21:41:33.997Z,51.20
2019-01-18T21:44:41.520Z,51.30
2019-01-18T21:47:34.549Z,51.50
2019-01-18T21:50:36.282Z,51.50
2019-01-18T21:53:36.184Z,51.40
2019-01-18T21:56:43.676Z,51.60
2019-01-18T21:59:46.820Z,51.60
2019-01-18T22:03:02.355Z,51.70
2019-01-18T22:06:17.532Z,51.80
2019-01-18T22:09:33.154Z,51.80
2019-01-18T22:12:53.093Z,51.80
2019-01-18T22:15:58.333Z,51.80
2019-01-18T22:18:55.419Z,51.70
2019-01-18T22:21:40.785Z,51.80
2019-01-18T22:24:24.327Z,51.80
2019-01-18T22:27:38.587Z,51.90
2019-01-18T22:30:47.628Z,51.90
2019-01-18T22:33:33.488Z,51.90
2019-01-18T22:37:00.865Z,51.90
2019-01-18T22:39:43.969Z,51.90
2019-01-18T22:42:46.415Z,51.80
2019-01-18T22:45:49.187Z,51.90
2019-01-18T22:48:57.802Z,52.00
2019-01-18T22:52:12.883Z,52.00
2019-01-18T22:55:09.266Z,52.00
2019-01-18T22:57:52.569Z,51.90
2019-01-18T23:01:18.460Z,51.90
2019-01-18T23:04:00.733Z,51.90
2019-01-18T23:07:08.790Z,51.80
2019-01-18T23:10:18.043Z,51.90
2019-01-18T23:13:13.252Z,51.90
2019-01-18T23:16:16.468Z,51.90
2019-01-18T23:19:20.364Z,52.00
2019-01-18T23:22:03.584Z,51.90
2019-01-18T23:24:56.993Z,51.80
2019-01-18T23:28:01.248Z,51.80
2019-01-18T23:30:41.485Z,51.80
2019-01-18T23:33:49.803Z,51.80
2019-01-18T23:36:38.696Z,51.80
2019-01-18T23:39:45.708Z,51.90
2019-01-18T23:42:29.313Z,51.90
2019-01-18T23:45:27.149Z,51.90
2019-01-18T23:48:09.933Z,52.00
2019-01-18T23:51:38.006Z,51.90
2019-01-18T23:54:54.933Z,52.00
2019-01-18T23:57:49.306Z,52.00
